Time;durP1;ratioP1;P1;durP2;ratioP2;P2;SDS_P1;SDS_P2;PMS_P1;PMS_P2;Temp;Humidity;BMP_temperature;BMP_pressure;BME280_temperature;BME280_humidity;BME280_pressure;Samples;Min_cycle;Max_cycle;Signal;HPM_P1;HPM_P2
2023/02/28 00:00:37;;;;;;;0.70;0.70;;;;;;;5.38;100.00;101747.91;7399974;19;20014;-92
2023/02/28 00:03:03;;;;;;;0.70;0.70;;;;;;;5.36;100.00;101747.53;7402201;19;20352;-93
2023/02/28 00:05:30;;;;;;;1.88;0.77;;;;;;;5.22;100.00;101750.25;7401678;19;20011;-89
2023/02/28 00:07:56;;;;;;;0.90;0.90;;;;;;;5.31;100.00;101751.47;7400898;19;20014;-90
2023/02/28 00:10:28;;;;;;;0.65;0.65;;;;;;;5.36;100.00;101750.28;7399448;19;20062;-82
2023/02/28 00:12:59;;;;;;;6.10;0.85;;;;;;;5.81;100.00;101743.94;7398359;19;20014;-83
2023/02/28 00:15:25;;;;;;;0.47;0.47;;;;;;;5.75;100.00;101742.78;7397514;19;20322;-83
2023/02/28 00:17:52;;;;;;;0.98;0.80;;;;;;;5.70;100.00;101745.13;7395608;19;20002;-84
2023/02/28 00:20:18;;;;;;;0.70;0.70;;;;;;;6.09;100.00;101743.94;7398517;19;20035;-84
2023/02/28 00:22:48;;;;;;;2.83;1.05;;;;;;;6.78;100.00;101737.72;7398196;19;20029;-85
2023/02/28 00:25:17;;;;;;;0.55;0.38;;;;;;;6.23;100.00;101745.09;7395070;19;20007;-85
2023/02/28 00:27:44;;;;;;;2.17;1.23;;;;;;;7.77;100.00;101737.00;7394673;19;20042;-85
2023/02/28 00:30:14;;;;;;;0.63;0.63;;;;;;;5.74;100.00;101745.94;7394098;19;20098;-85
2023/02/28 00:32:41;;;;;;;0.65;0.65;;;;;;;5.52;100.00;101750.69;7398159;19;20029;-85
2023/02/28 00:35:08;;;;;;;1.35;0.73;;;;;;;5.07;100.00;101754.19;7397261;19;20694;-84
2023/02/28 00:37:34;;;;;;;3.83;0.88;;;;;;;5.20;100.00;101755.38;7397867;19;20011;-85
2023/02/28 00:40:01;;;;;;;0.43;0.35;;;;;;;7.20;100.00;101748.56;7397294;19;20007;-85
2023/02/28 00:42:27;;;;;;;2.53;1.27;;;;;;;9.18;100.00;101738.06;7396731;19;20014;-85
2023/02/28 00:44:54;;;;;;;4.35;1.33;;;;;;;10.13;100.00;101745.63;7395624;19;20010;-85
2023/02/28 00:47:20;;;;;;;3.15;0.60;;;;;;;9.10;100.00;101740.94;7394736;19;20007;-85
2023/02/28 00:49:46;;;;;;;0.55;0.55;;;;;;;6.50;100.00;101738.66;7395099;19;20052;-85
2023/02/28 00:52:12;;;;;;;0.32;0.32;;;;;;;7.37;100.00;101733.78;7396939;19;20015;-85
2023/02/28 00:54:38;;;;;;;3.55;0.85;;;;;;;8.75;100.00;101730.34;7395851;19;20025;-84
2023/02/28 00:57:04;;;;;;;1.55;0.95;;;;;;;9.82;100.00;101741.38;7397377;19;20006;-85
2023/02/28 00:59:31;;;;;;;2.13;1.48;;;;;;;10.85;100.00;101740.94;7396702;19;20015;-85
2023/02/28 01:01:58;;;;;;;1.17;1.08;;;;;;;10.46;100.00;101746.56;7396000;19;20037;-84
2023/02/28 01:04:24;;;;;;;1.08;0.82;;;;;;;10.28;100.00;101740.56;7394584;19;20333;-85
2023/02/28 01:06:50;;;;;;;0.93;0.85;;;;;;;7.09;100.00;101753.38;7392714;19;20006;-85
2023/02/28 01:09:16;;;;;;;1.00;0.77;;;;;;;6.47;100.00;101750.53;7395310;19;20024;-84
2023/02/28 01:11:43;;;;;;;2.22;1.40;;;;;;;5.67;100.00;101760.56;7393837;19;20078;-84
2023/02/28 01:14:14;;;;;;;1.23;0.70;;;;;;;5.47;100.00;101764.91;7393808;19;20022;-84
2023/02/28 01:16:41;;;;;;;1.07;0.97;;;;;;;5.44;100.00;101765.69;7395822;19;20035;-84
2023/02/28 01:19:07;;;;;;;1.55;0.95;;;;;;;5.33;100.00;101759.34;7394398;19;20039;-84
2023/02/28 01:21:34;;;;;;;0.45;0.45;;;;;;;5.17;100.00;101761.72;7393011;19;20018;-85
2023/02/28 01:24:02;;;;;;;0.55;0.45;;;;;;;5.27;100.00;101767.25;7393839;19;20069;-85
2023/02/28 01:26:28;;;;;;;0.82;0.70;;;;;;;4.94;100.00;101769.53;7395255;19;20011;-84
2023/02/28 01:28:54;;;;;;;0.20;0.20;;;;;;;4.89;100.00;101772.69;7396076;19;20081;-85
2023/02/28 01:31:21;;;;;;;1.83;0.70;;;;;;;5.05;100.00;101770.34;7394615;19;20021;-84
2023/02/28 01:33:49;;;;;;;0.68;0.65;;;;;;;4.85;100.00;101771.91;7393493;19;20010;-84
2023/02/28 01:36:21;;;;;;;4.15;1.20;;;;;;;4.94;100.00;101780.56;7396164;19;20410;-85
2023/02/28 01:38:48;;;;;;;1.55;0.82;;;;;;;4.12;100.00;101768.41;7393694;19;20011;-85
2023/02/28 01:41:17;;;;;;;0.55;0.32;;;;;;;4.00;100.00;101776.22;7393090;19;20022;-84
2023/02/28 01:43:43;;;;;;;2.10;1.15;;;;;;;4.83;100.00;101779.78;7398259;19;20015;-84
2023/02/28 01:46:10;;;;;;;1.52;0.70;;;;;;;5.20;100.00;101766.44;7393342;19;20011;-84
2023/02/28 01:48:42;;;;;;;2.22;1.60;;;;;;;5.28;100.00;101784.63;7395386;19;20066;-85
2023/02/28 01:51:12;;;;;;;0.85;0.85;;;;;;;5.28;100.00;101779.09;7394485;19;20027;-85
2023/02/28 01:53:53;;;;;;;1.10;1.10;;;;;;;5.48;100.00;101766.47;7398394;19;20342;-85
2023/02/28 01:56:25;;;;;;;5.07;0.85;;;;;;;5.03;100.00;101775.47;7394569;19;20383;-84
2023/02/28 01:58:53;;;;;;;4.38;1.20;;;;;;;5.25;100.00;101774.34;7393780;19;20524;-84
2023/02/28 02:01:21;;;;;;;3.70;0.75;;;;;;;5.25;100.00;101779.88;7393144;19;20014;-84
2023/02/28 02:03:57;;;;;;;1.55;1.10;;;;;;;5.42;100.00;101773.56;7392725;19;20018;-85
2023/02/28 02:06:29;;;;;;;5.07;1.23;;;;;;;5.29;100.00;101775.13;7393613;19;20026;-84
2023/02/28 02:08:56;;;;;;;3.20;0.98;;;;;;;6.05;100.00;101770.81;7394715;19;20018;-84
2023/02/28 02:11:24;;;;;;;2.90;1.38;;;;;;;5.52;100.00;101761.75;7392606;19;20014;-84
2023/02/28 02:14:09;;;;;;;0.32;0.32;;;;;;;5.53;100.00;101768.84;7391388;19;20022;-84
2023/02/28 02:16:59;;;;;;;0.98;0.98;;;;;;;5.87;100.00;101761.75;7394688;19;20500;-84
2023/02/28 02:19:43;;;;;;;1.48;1.33;;;;;;;7.17;100.00;101754.13;7394447;19;20010;-84
2023/02/28 02:22:34;;;;;;;0.73;0.73;;;;;;;5.87;100.00;101761.75;7394861;19;20241;-84
2023/02/28 02:25:19;;;;;;;;;;;;;;;5.41;100.00;101766.47;7390591;19;20026;-82
2023/02/28 02:28:19;;;;;;;0.28;0.22;;;;;;;5.60;100.00;101763.31;7390503;19;19926;-87
2023/02/28 02:31:13;;;;;;;1.40;0.63;;;;;;;5.34;100.00;101766.47;7393552;19;20018;-89
2023/02/28 02:34:05;;;;;;;0.47;0.47;;;;;;;5.27;100.00;101760.94;7398162;19;20010;-90
2023/02/28 02:36:38;;;;;;;0.82;0.82;;;;;;;5.09;100.00;101765.66;7396150;19;20398;-90
2023/02/28 02:39:25;;;;;;;1.25;0.85;;;;;;;5.08;100.00;101761.31;7395440;19;20027;-90
2023/02/28 02:41:53;;;;;;;1.85;0.52;;;;;;;4.81;100.00;101768.34;7396085;19;20473;-90
2023/02/28 02:44:44;;;;;;;1.08;1.08;;;;;;;4.88;100.00;101768.34;7395104;19;20535;-86
2023/02/28 02:47:14;;;;;;;2.70;1.43;;;;;;;5.20;100.00;101767.22;7394617;19;20034;-89
2023/02/28 02:49:46;;;;;;;1.45;0.80;;;;;;;5.45;100.00;101766.47;7395026;19;20031;-89
2023/02/28 02:52:16;;;;;;;0.45;0.45;;;;;;;5.09;100.00;101754.59;7400491;19;20019;-89
2023/02/28 02:54:46;;;;;;;3.78;0.45;;;;;;;5.00;100.00;101762.47;7402470;19;20027;-89
2023/02/28 02:57:21;;;;;;;1.60;1.23;;;;;;;4.81;100.00;101765.59;7401740;19;20019;-90
2023/02/28 02:59:50;;;;;;;0.10;0.10;;;;;;;4.84;100.00;101768.34;7401962;19;20010;-89
2023/02/28 03:02:17;;;;;;;2.70;1.00;;;;;;;4.87;100.00;101770.34;7401091;19;20022;-90
2023/02/28 03:04:48;;;;;;;4.03;1.10;;;;;;;5.02;100.00;101760.09;7399884;19;20039;-90
2023/02/28 03:07:14;;;;;;;0.85;0.52;;;;;;;4.80;100.00;101770.31;7399776;19;20018;-90
2023/02/28 03:09:41;;;;;;;1.35;0.50;;;;;;;4.48;100.00;101770.16;7398709;19;20017;-90
2023/02/28 03:12:12;;;;;;;1.75;0.70;;;;;;;4.78;100.00;101764.38;7400510;19;20014;-90
2023/02/28 03:15:07;;;;;;;0.68;0.68;;;;;;;4.45;100.00;101765.44;7402117;19;20042;-90
2023/02/28 03:17:46;;;;;;;0.73;0.40;;;;;;;4.53;100.00;101767.03;7401949;19;20015;-90
2023/02/28 03:20:40;;;;;;;2.60;1.30;;;;;;;4.59;100.00;101765.47;7400766;19;20022;-90
2023/02/28 03:23:15;;;;;;;0.30;0.30;;;;;;;4.51;100.00;101769.41;7402975;19;20074;-90
2023/02/28 03:25:48;;;;;;;0.70;0.65;;;;;;;4.35;100.00;101771.69;7402925;19;20018;-89
2023/02/28 03:28:42;;;;;;;5.80;0.95;;;;;;;4.65;100.00;101768.69;7403005;19;20337;-90
2023/02/28 03:31:32;;;;;;;0.65;0.65;;;;;;;4.87;100.00;101759.28;7401255;19;20011;-90
2023/02/28 03:34:26;;;;;;;0.60;0.52;;;;;;;4.20;100.00;101758.22;7398777;19;20039;-90
2023/02/28 03:36:57;;;;;;;0.63;0.63;;;;;;;4.50;100.00;101756.78;7404433;19;20018;-90
2023/02/28 03:39:43;;;;;;;0.77;0.52;;;;;;;4.49;100.00;101766.25;7402893;19;20015;-89
2023/02/28 03:42:16;;;;;;;0.82;0.82;;;;;;;4.32;100.00;101763.41;7401905;19;20566;-90
2023/02/28 03:44:53;;;;;;;0.55;0.55;;;;;;;4.92;100.00;101755.34;7399255;19;20398;-90
2023/02/28 03:47:25;;;;;;;2.40;0.68;;;;;;;4.81;100.00;101757.31;7397984;19;20504;-90
2023/02/28 03:49:58;;;;;;;0.25;0.25;;;;;;;5.00;100.00;101754.97;7399542;19;20491;-90
2023/02/28 03:52:30;;;;;;;2.85;0.60;;;;;;;4.83;100.00;101752.19;7400952;19;20382;-90
2023/02/28 03:55:03;;;;;;;0.90;0.90;;;;;;;4.99;100.00;101764.44;7401967;19;20084;-90
2023/02/28 03:57:38;;;;;;;0.50;0.30;;;;;;;4.94;100.00;101758.50;7401814;19;20011;-90
2023/02/28 04:00:28;;;;;;;1.50;0.70;;;;;;;5.13;100.00;101766.44;7401431;19;20002;-90
2023/02/28 04:02:55;;;;;;;2.63;1.45;;;;;;;5.14;100.00;101765.25;7401060;19;20015;-90
2023/02/28 04:05:22;;;;;;;3.22;0.77;;;;;;;4.96;100.00;101767.97;7398760;19;20018;-90
2023/02/28 04:07:48;;;;;;;0.68;0.40;;;;;;;5.37;100.00;101765.69;7398074;19;20015;-89
2023/02/28 04:10:15;;;;;;;0.50;0.45;;;;;;;5.24;100.00;101767.25;7397605;19;20024;-90
2023/02/28 04:12:41;;;;;;;0.50;0.50;;;;;;;5.23;100.00;101765.66;7400313;19;20410;-90
2023/02/28 04:15:08;;;;;;;0.85;0.57;;;;;;;5.01;100.00;101769.56;7400694;19;20011;-90
2023/02/28 04:17:34;;;;;;;0.63;0.63;;;;;;;4.69;100.00;101768.69;7400015;19;20002;-90
2023/02/28 04:20:00;;;;;;;0.43;0.43;;;;;;;5.22;100.00;101758.53;7400551;19;20082;-90
2023/02/28 04:22:27;;;;;;;3.63;0.65;;;;;;;5.19;100.00;101767.63;7400813;19;20042;-90
2023/02/28 04:24:56;;;;;;;1.23;1.13;;;;;;;5.17;100.00;101757.00;7396628;19;20044;-89
2023/02/28 04:27:22;;;;;;;1.45;0.50;;;;;;;5.19;100.00;101756.59;7397783;19;20018;-90
2023/02/28 04:29:48;;;;;;;0.50;0.45;;;;;;;5.06;100.00;101761.69;7398070;19;20086;-90
2023/02/28 04:32:14;;;;;;;0.98;0.38;;;;;;;5.13;100.00;101752.63;7398704;19;20094;-89
2023/02/28 04:34:40;;;;;;;2.05;0.73;;;;;;;5.02;100.00;101754.59;7399285;19;20007;-90
2023/02/28 04:37:07;;;;;;;0.52;0.52;;;;;;;5.31;100.00;101757.00;7400113;19;20007;-89
2023/02/28 04:39:36;;;;;;;4.25;1.25;;;;;;;5.39;100.00;101764.09;7400954;19;20017;-89
2023/02/28 04:42:03;;;;;;;0.68;0.60;;;;;;;5.93;100.00;101759.38;7398648;19;20017;-90
2023/02/28 04:44:29;;;;;;;1.20;1.15;;;;;;;6.12;100.00;101761.72;7405735;19;20011;-89
2023/02/28 04:46:55;;;;;;;4.78;0.80;;;;;;;5.25;100.00;101758.56;7416080;19;20014;-89
2023/02/28 04:49:21;;;;;;;8.10;1.02;;;;;;;5.59;100.00;101764.50;7417949;19;20015;-89
2023/02/28 04:51:49;;;;;;;1.00;1.00;;;;;;;5.23;100.00;101768.44;7411678;19;20422;-89
2023/02/28 04:54:17;;;;;;;5.38;0.63;;;;;;;5.86;100.00;101762.16;7397018;19;20018;-89
2023/02/28 04:56:44;;;;;;;1.05;1.02;;;;;;;6.15;100.00;101762.91;7398648;19;20022;-90
2023/02/28 04:59:10;;;;;;;1.50;0.52;;;;;;;5.92;100.00;101764.13;7397608;19;20031;-90
2023/02/28 05:01:36;;;;;;;0.90;0.68;;;;;;;5.84;100.00;101770.84;7398925;19;20524;-89
2023/02/28 05:04:04;;;;;;;0.32;0.32;;;;;;;5.24;100.00;101775.53;7396187;19;20494;-86
2023/02/28 05:06:33;;;;;;;1.55;0.88;;;;;;;5.35;100.00;101773.56;7396215;19;20018;-84
2023/02/28 05:08:59;;;;;;;0.20;0.20;;;;;;;5.69;100.00;101772.00;7395594;19;20010;-85
2023/02/28 05:11:34;;;;;;;4.57;1.08;;;;;;;5.43;100.00;101774.38;7398206;19;20385;-91
2023/02/28 05:14:06;;;;;;;0.90;0.90;;;;;;;5.51;100.00;101775.94;7395018;19;20010;-91
2023/02/28 05:16:32;;;;;;;0.88;0.75;;;;;;;5.37;100.00;101782.28;7399458;19;20023;-91
2023/02/28 05:18:59;;;;;;;0.32;0.32;;;;;;;5.58;100.00;101782.28;7399206;19;20014;-91
2023/02/28 05:21:35;;;;;;;0.43;0.43;;;;;;;5.06;100.00;101771.94;7398457;19;20026;-91
2023/02/28 05:24:04;;;;;;;0.63;0.63;;;;;;;4.91;100.00;101775.84;7395482;19;20027;-91
2023/02/28 05:26:34;;;;;;;1.98;0.73;;;;;;;5.12;100.00;101779.47;7399249;19;20038;-91
2023/02/28 05:29:00;;;;;;;4.47;0.82;;;;;;;5.13;100.00;101777.50;7399091;19;20461;-91
2023/02/28 05:31:27;;;;;;;0.45;0.45;;;;;;;5.36;100.00;101775.16;7397111;19;20015;-91
2023/02/28 05:33:53;;;;;;;1.10;1.00;;;;;;;5.66;100.00;101783.84;7397103;19;20082;-91
2023/02/28 05:36:21;;;;;;;4.82;0.80;;;;;;;5.34;100.00;101783.84;7397597;19;20461;-91
2023/02/28 05:38:49;;;;;;;10.80;1.73;;;;;;;5.28;100.00;101784.63;7398398;19;20022;-91
2023/02/28 05:41:16;;;;;;;0.10;0.10;;;;;;;5.29;100.00;101778.69;7396542;19;20022;-91
2023/02/28 05:43:43;;;;;;;4.57;0.50;;;;;;;5.21;100.00;101779.88;7400963;19;20026;-90
2023/02/28 05:46:11;;;;;;;0.75;0.75;;;;;;;5.33;100.00;101778.69;7396499;19;20082;-90
2023/02/28 05:48:38;;;;;;;2.60;0.47;;;;;;;5.28;100.00;101779.84;7397731;19;20014;-91
2023/02/28 05:51:05;;;;;;;1.40;0.77;;;;;;;5.20;100.00;101783.00;7397533;19;20014;-90
2023/02/28 05:53:32;;;;;;;2.97;1.67;;;;;;;5.47;100.00;101775.94;7401463;19;20341;-91
2023/02/28 05:55:59;;;;;;;11.25;1.40;;;;;;;5.03;100.00;101783.75;7397875;19;20002;-91
2023/02/28 05:58:28;;;;;;;0.50;0.50;;;;;;;5.27;100.00;101778.28;7398065;19;20022;-91
2023/02/28 06:00:55;;;;;;;0.40;0.40;;;;;;;5.17;100.00;101772.75;7397548;19;20452;-90
2023/02/28 06:03:21;;;;;;;1.40;0.88;;;;;;;5.27;100.00;101778.28;7400323;19;20491;-90
2023/02/28 06:05:50;;;;;;;0.20;0.20;;;;;;;5.13;100.00;101785.78;7395635;19;20359;-90
2023/02/28 06:08:16;;;;;;;1.05;1.00;;;;;;;5.11;100.00;101777.09;7395842;19;20078;-90
2023/02/28 06:10:42;;;;;;;1.02;0.77;;;;;;;5.46;100.00;101784.63;7395891;19;20011;-90
2023/02/28 06:13:08;;;;;;;0.50;0.50;;;;;;;5.32;100.00;101779.88;7397547;19;20010;-90
2023/02/28 06:15:35;;;;;;;3.10;0.60;;;;;;;5.09;100.00;101793.25;7397311;19;20010;-90
2023/02/28 06:18:01;;;;;;;0.57;0.50;;;;;;;5.38;100.00;101783.84;7396451;19;20023;-90
2023/02/28 06:20:31;;;;;;;1.45;0.63;;;;;;;5.55;100.00;101783.06;7398898;19;20014;-90
2023/02/28 06:23:01;;;;;;;2.20;0.80;;;;;;;5.41;100.00;101777.53;7396834;19;20015;-90
2023/02/28 06:25:27;;;;;;;1.58;0.68;;;;;;;5.55;100.00;101772.00;7394995;19;20031;-91
2023/02/28 06:27:55;;;;;;;0.47;0.47;;;;;;;5.26;100.00;101775.94;7394859;19;21244;-90
2023/02/28 06:30:26;;;;;;;0.22;0.22;;;;;;;5.36;100.00;101784.22;7395471;19;20066;-91
2023/02/28 06:32:54;;;;;;;3.33;0.85;;;;;;;5.15;100.00;101786.19;7397454;19;20412;-91
2023/02/28 06:35:20;;;;;;;0.60;0.60;;;;;;;5.17;100.00;101794.84;7396591;19;20010;-90
2023/02/28 06:37:46;;;;;;;0.35;0.35;;;;;;;4.83;100.00;101790.81;7395636;19;20022;-90
2023/02/28 06:40:13;;;;;;;0.30;0.30;;;;;;;4.98;100.00;101797.97;7395134;19;20018;-90
2023/02/28 06:42:39;;;;;;;2.58;0.75;;;;;;;5.22;100.00;101798.00;7396897;19;20025;-90
2023/02/28 06:45:08;;;;;;;3.63;0.52;;;;;;;5.16;100.00;101793.25;7393960;19;20015;-89
2023/02/28 06:47:39;;;;;;;3.33;1.30;;;;;;;5.51;100.00;101793.31;7393979;19;20011;-90
2023/02/28 06:50:07;;;;;;;5.95;1.30;;;;;;;5.92;100.00;101802.81;7393449;19;20554;-90
2023/02/28 06:52:35;;;;;;;0.60;0.60;;;;;;;5.45;100.00;101805.94;7395573;19;20022;-90
2023/02/28 06:55:03;;;;;;;1.10;1.10;;;;;;;4.85;100.00;101799.50;7400672;19;20041;-89
2023/02/28 06:57:32;;;;;;;1.30;0.68;;;;;;;4.80;100.00;101808.94;7395757;19;20010;-88
2023/02/28 07:00:00;;;;;;;3.50;1.98;;;;;;;4.75;100.00;101805.75;7394356;19;20010;-88
2023/02/28 07:02:27;;;;;;;13.35;1.83;;;;;;;5.18;100.00;101813.78;7395853;19;20015;-88
2023/02/28 07:04:53;;;;;;;2.85;1.13;;;;;;;5.28;100.00;101806.72;7393241;19;20023;-88
2023/02/28 07:07:19;;;;;;;2.88;0.90;;;;;;;5.67;100.00;101807.56;7393551;19;20010;-88
2023/02/28 07:09:46;;;;;;;1.30;0.63;;;;;;;5.67;100.00;101813.09;7393590;19;20342;-88
2023/02/28 07:12:12;;;;;;;3.03;0.73;;;;;;;5.59;100.00;101810.72;7394406;19;20010;-88
2023/02/28 07:14:38;;;;;;;2.85;0.98;;;;;;;5.18;100.00;101813.00;7393204;19;20070;-87
2023/02/28 07:17:07;;;;;;;2.45;1.20;;;;;;;5.58;100.00;101817.41;7394647;19;20018;-88
2023/02/28 07:19:33;;;;;;;1.45;0.65;;;;;;;5.81;100.00;101813.06;7394313;19;20010;-88
2023/02/28 07:21:59;;;;;;;0.22;0.22;;;;;;;6.04;100.00;101815.47;7394624;19;20027;-88
2023/02/28 07:24:28;;;;;;;1.38;0.70;;;;;;;5.87;100.00;101816.25;7392497;19;20021;-88
2023/02/28 07:26:54;;;;;;;0.65;0.63;;;;;;;6.26;100.00;101813.47;7392844;19;20023;-88
2023/02/28 07:29:20;;;;;;;0.80;0.80;;;;;;;6.14;100.00;101817.41;7390011;19;20019;-88
2023/02/28 07:31:46;;;;;;;0.50;0.50;;;;;;;6.17;100.00;101813.88;7392297;19;20043;-88
2023/02/28 07:34:13;;;;;;;0.30;0.30;;;;;;;6.51;100.00;101823.28;7390548;19;20014;-88
2023/02/28 07:36:39;;;;;;;1.23;1.00;;;;;;;6.58;100.00;101820.47;7392498;19;20030;-87
2023/02/28 07:39:06;;;;;;;0.50;0.50;;;;;;;6.48;100.00;101823.25;7399681;19;20087;-89
2023/02/28 07:41:33;;;;;;;1.92;0.73;;;;;;;6.59;100.00;101826.78;7399698;19;20022;-89
2023/02/28 07:44:00;;;;;;;1.40;1.10;;;;;;;6.71;100.00;101829.13;7398861;19;20475;-89
2023/02/28 07:46:26;;;;;;;1.75;0.40;;;;;;;6.73;100.00;101835.06;7399792;19;20074;-89
2023/02/28 07:48:54;;;;;;;3.28;0.85;;;;;;;6.92;100.00;101826.28;7400111;19;20003;-89
2023/02/28 07:51:22;;;;;;;1.45;0.50;;;;;;;6.92;100.00;101820.75;7401726;19;20047;-89
2023/02/28 07:53:48;;;;;;;0.20;0.20;;;;;;;7.36;100.00;101818.09;7399190;19;20018;-90
2023/02/28 07:56:14;;;;;;;4.22;0.70;;;;;;;6.86;100.00;101823.13;7400053;19;20011;-89
2023/02/28 07:58:40;;;;;;;0.90;0.82;;;;;;;6.80;100.00;101830.28;7401942;19;20504;-89
2023/02/28 08:01:09;;;;;;;0.28;0.28;;;;;;;6.75;100.00;101827.16;7401788;19;20022;-89
2023/02/28 08:03:36;;;;;;;1.23;0.52;;;;;;;6.75;100.00;101827.16;7401377;19;20018;-88
2023/02/28 08:06:04;;;;;;;4.63;0.70;;;;;;;7.16;100.00;101830.91;7402840;19;20482;-89
2023/02/28 08:08:31;;;;;;;0.55;0.55;;;;;;;7.36;100.00;101831.97;7399667;19;20020;-90
2023/02/28 08:11:01;;;;;;;0.85;0.85;;;;;;;7.35;100.00;101833.16;7399563;19;20398;-90
2023/02/28 08:13:29;;;;;;;0.57;0.40;;;;;;;7.62;100.00;101827.84;7403336;19;20022;-90
2023/02/28 08:15:55;;;;;;;2.05;0.55;;;;;;;7.73;100.00;101830.53;7401369;19;20103;-89
2023/02/28 08:18:22;;;;;;;0.20;0.20;;;;;;;8.16;100.00;101831.75;7399716;19;20023;-92
2023/02/28 08:20:49;;;;;;;1.40;0.57;;;;;;;7.09;100.00;101825.41;7400831;19;20100;-91
2023/02/28 08:23:15;;;;;;;0.55;0.55;;;;;;;7.36;100.00;101823.66;7402269;19;20094;-92
2023/02/28 08:25:41;;;;;;;0.63;0.63;;;;;;;6.84;100.00;101824.75;7401134;19;20022;-91
2023/02/28 08:28:07;;;;;;;0.73;0.73;;;;;;;7.34;100.00;101837.13;7398579;19;20038;-91
2023/02/28 08:30:33;;;;;;;0.93;0.93;;;;;;;7.46;100.00;101833.09;7398596;19;20025;-90
2023/02/28 08:33:01;;;;;;;0.40;0.40;;;;;;;7.07;100.00;101830.56;7396680;19;20015;-92
2023/02/28 08:35:27;;;;;;;1.05;0.95;;;;;;;8.06;100.00;101827.06;7400308;19;20018;-91
2023/02/28 08:37:53;;;;;;;1.00;0.40;;;;;;;8.46;100.00;101823.53;7401178;19;20102;-91
2023/02/28 08:40:20;;;;;;;2.05;0.98;;;;;;;8.85;100.00;101828.63;7401148;19;20046;-92
2023/02/28 08:42:46;;;;;;;0.60;0.60;;;;;;;7.86;100.00;101832.38;7398344;19;20018;-90
2023/02/28 08:45:14;;;;;;;0.38;0.38;;;;;;;7.75;100.00;101830.91;7401140;19;20355;-92
2023/02/28 08:47:40;;;;;;;0.28;0.28;;;;;;;8.28;100.00;101842.34;7398429;19;20042;-91
2023/02/28 08:50:07;;;;;;;0.75;0.73;;;;;;;6.71;100.00;101838.22;7397825;19;20015;-91
2023/02/28 08:52:33;;;;;;;0.50;0.50;;;;;;;7.32;100.00;101845.06;7397775;19;20343;-91
2023/02/28 08:55:00;;;;;;;0.88;0.50;;;;;;;6.69;100.00;101845.38;7400587;19;20512;-92
2023/02/28 08:57:26;;;;;;;1.00;0.35;;;;;;;8.20;100.00;101835.28;7400923;19;20477;-92
2023/02/28 08:59:53;;;;;;;0.28;0.28;;;;;;;7.80;100.00;101836.00;7401510;19;20010;-91
2023/02/28 09:02:19;;;;;;;0.85;0.30;;;;;;;8.37;100.00;101831.56;7400663;19;20649;-92
2023/02/28 09:04:45;;;;;;;0.35;0.35;;;;;;;8.31;100.00;101833.22;7399660;19;20453;-92
2023/02/28 09:07:12;;;;;;;0.40;0.40;;;;;;;7.84;100.00;101829.25;7395742;19;20026;-92
2023/02/28 09:09:53;;;;;;;0.47;0.38;;;;;;;7.67;100.00;101832.94;7396448;19;20011;-92
2023/02/28 09:12:32;;;;;;;1.48;0.55;;;;;;;8.30;100.00;101837.97;7397499;19;20416;-91
2023/02/28 09:14:58;;;;;;;0.25;0.25;;;;;;;8.54;100.00;101833.34;7399774;19;20018;-91
2023/02/28 09:17:24;;;;;;;1.15;0.30;;;;;;;8.16;100.00;101848.41;7398698;19;20052;-90
2023/02/28 09:19:50;;;;;;;0.30;0.30;;;;;;;7.86;100.00;101845.50;7397594;19;20018;-91
2023/02/28 09:22:16;;;;;;;0.57;0.57;;;;;;;7.16;100.00;101844.75;7399178;19;20023;-90
2023/02/28 09:24:44;;;;;;;0.40;0.40;;;;;;;9.72;100.00;101848.06;7395824;19;20018;-91
2023/02/28 09:27:10;;;;;;;1.50;1.13;;;;;;;11.77;100.00;101840.03;7397190;19;20043;-89
2023/02/28 09:29:36;;;;;;;1.13;0.40;;;;;;;12.55;100.00;101843.63;7395780;19;20011;-92
2023/02/28 09:32:05;;;;;;;0.50;0.50;;;;;;;12.85;100.00;101843.97;7395852;19;20007;-93
2023/02/28 09:34:31;;;;;;;0.13;0.13;;;;;;;12.96;100.00;101849.25;7398763;19;20018;-92
2023/02/28 09:36:57;;;;;;;1.15;0.30;;;;;;;13.26;100.00;101843.16;7399222;19;20031;-93
2023/02/28 09:39:26;;;;;;;0.35;0.35;;;;;;;13.02;100.00;101841.88;7399392;19;20078;-93
2023/02/28 09:41:54;;;;;;;0.10;0.10;;;;;;;11.74;100.00;101846.47;7397528;19;20015;-93
2023/02/28 09:44:29;;;;;;;0.15;0.15;;;;;;;9.75;100.00;101852.78;7396995;19;20019;-92
2023/02/28 09:47:00;;;;;;;0.47;0.47;;;;;;;11.52;100.00;101850.97;7397808;19;20469;-92
2023/02/28 09:49:35;;;;;;;2.83;0.55;;;;;;;9.02;100.00;101852.63;7397454;19;20027;-92
2023/02/28 09:52:03;;;;;;;0.10;0.10;;;;;;;8.92;100.00;101848.78;7399849;19;20096;-91
2023/02/28 09:54:32;;;;;;;0.10;0.10;;;;;;;8.15;100.00;101857.91;7396896;19;20011;-92
2023/02/28 09:57:06;;;;;;;0.13;0.13;;;;;;;8.19;100.00;101856.69;7397892;19;20014;-91
2023/02/28 09:59:50;;;;;;;0.30;0.30;;;;;;;8.10;100.00;101861.91;7396353;19;20017;-91
2023/02/28 10:03:04;;;;;;;0.20;0.20;;;;;;;8.25;100.00;101862.59;7396914;19;20019;-92
2023/02/28 10:05:37;;;;;;;7.78;0.55;;;;;;;7.92;100.00;101871.59;7392663;19;20077;-89
2023/02/28 10:08:04;;;;;;;0.45;0.43;;;;;;;8.94;100.00;101870.59;7395278;19;20042;-89
2023/02/28 10:10:44;;;;;;;0.20;0.20;;;;;;;8.17;100.00;101866.59;7394641;19;20027;-89
2023/02/28 10:13:50;;;;;;;0.35;0.35;;;;;;;8.84;100.00;101865.94;7398323;19;20017;-89
2023/02/28 10:16:28;;;;;;;2.70;0.85;;;;;;;9.35;100.00;101862.13;7397065;19;20018;-89
2023/02/28 10:19:20;;;;;;;2.60;0.63;;;;;;;9.13;100.00;101867.19;7394930;19;20021;-88
2023/02/28 10:21:54;;;;;;;0.30;0.30;;;;;;;9.05;100.00;101866.47;7395914;19;20029;-89
2023/02/28 10:24:30;;;;;;;0.22;0.22;;;;;;;12.44;100.00;101859.88;7393275;19;20027;-89
2023/02/28 10:27:01;;;;;;;0.50;0.50;;;;;;;13.13;100.00;101867.53;7397484;19;20030;-89
2023/02/28 10:29:31;;;;;;;0.57;0.57;;;;;;;13.18;100.00;101860.63;7395634;19;20480;-89
2023/02/28 10:32:01;;;;;;;13.77;0.85;;;;;;;13.62;100.00;101860.44;7397688;19;20034;-90
2023/02/28 10:34:28;;;;;;;0.52;0.52;;;;;;;12.82;100.00;101860.84;7395405;19;20017;-89
2023/02/28 10:36:55;;;;;;;0.50;0.50;;;;;;;12.75;100.00;101858.25;7396130;19;20038;-90
2023/02/28 10:39:41;;;;;;;9.18;0.65;;;;;;;12.17;100.00;101863.75;7395285;19;20066;-90
2023/02/28 10:42:25;;;;;;;0.20;0.20;;;;;;;13.24;100.00;101858.84;7397153;19;20415;-90
2023/02/28 10:45:12;;;;;;;0.20;0.20;;;;;;;10.65;100.00;101863.56;7395436;19;20022;-90
2023/02/28 10:47:56;;;;;;;0.30;0.30;;;;;;;13.66;100.00;101855.50;7394810;19;20090;-92
2023/02/28 10:50:34;;;;;;;0.10;0.10;;;;;;;11.57;100.00;101863.63;7396936;19;20621;-92
2023/02/28 10:53:14;;;;;;;0.10;0.10;;;;;;;8.93;100.00;101858.69;7397335;19;20010;-90
2023/02/28 10:55:41;;;;;;;0.20;0.20;;;;;;;9.96;100.00;101860.81;7396773;19;20041;-89
2023/02/28 10:58:49;;;;;;;0.50;0.50;;;;;;;8.55;100.00;101864.69;7398402;19;20010;-88
2023/02/28 11:01:19;;;;;;;0.57;0.45;;;;;;;10.51;100.00;101854.69;7393160;19;20533;-87
2023/02/28 11:03:46;;;;;;;0.20;0.20;;;;;;;9.10;100.00;101846.56;7393168;19;20070;-93
2023/02/28 11:06:32;;;;;;;0.10;0.10;;;;;;;8.96;100.00;101843.97;7398363;19;20013;-94
2023/02/28 11:09:00;;;;;;;0.10;0.10;;;;;;;10.34;100.00;101848.22;7398184;19;20021;-94
2023/02/28 11:11:31;;;;;;;0.28;0.28;;;;;;;8.64;100.00;101851.88;7396376;19;20015;-95
2023/02/28 11:14:04;;;;;;;0.10;0.10;;;;;;;9.85;100.00;101847.03;7401921;19;20370;-95
2023/02/28 11:16:36;;;;;;;0.20;0.20;;;;;;;9.14;100.00;101847.31;7409249;19;20018;-95
2023/02/28 11:19:06;;;;;;;0.10;0.10;;;;;;;9.00;100.00;101846.72;7411468;19;20096;-95
2023/02/28 11:21:36;;;;;;;0.10;0.10;;;;;;;8.64;100.00;101849.09;7407889;19;20022;-96
2023/02/28 11:24:22;;;;;;;0.20;0.20;;;;;;;8.33;100.00;101844.69;7403407;19;20014;-93
2023/02/28 11:26:49;;;;;;;1.17;0.82;;;;;;;8.02;100.00;101837.41;7403452;19;20010;-96
2023/02/28 11:29:24;;;;;;;0.20;0.20;;;;;;;8.32;100.00;101848.66;7405704;19;20010;-96
2023/02/28 11:32:11;;;;;;;0.10;0.10;;;;;;;8.37;100.00;101840.69;7403268;19;20045;-95
2023/02/28 11:34:38;;;;;;;0.20;0.10;;;;;;;9.20;100.00;101844.88;7402958;19;20022;-95
2023/02/28 11:37:10;;;;;;;0.15;0.15;;;;;;;8.93;100.00;101839.25;7399039;19;20007;-95
2023/02/28 11:39:37;;;;;;;0.17;0.15;;;;;;;8.99;100.00;101834.78;7400475;19;20500;-95